Leon, Nicaragua

2:24 PM CST on November 24, 2014 (GMT -0600)
Chinandega | Change Station
CLOSE
Current Station
Personal Weather Station
Location: Chinandega, CHINANDEGA
Elevation: 243 ft
Nearby Weather Stations

Elev 243 ft 12.62 °N, 87.12 °W | Updated 11 seconds ago

Scattered Clouds
Scattered Clouds
91.8 °F
Feels Like 106 °F
N
3.7
Wind Variable Wind from SSE

Today
High -- | Low -- °F
--% Chance of Precip.
Yesterday
High -- | Low -- °F
Precip. -- in
5:49 AM 5:18 PM
Waxing Crescent, 7% visible
Pressure 29.80 in
Visibility 6.2 miles
Clouds Scattered Clouds 2500 ft
Heat Index 106 °F
Dew Point 77 °F
Humidity 62%
Rainfall 0.00 in
Snow Depth Not available.
UV 4 out of 12
Pollen Not available.
Air Quality Not available.
Flu Activity Not available.
METAR MNCH 242000Z 14004KT 9999 SCT025TCU 31/24 Q1009 TCU/N/NE

More Conditions Fewer Conditions

Pressure 29.80 in
Visibility 6.2 miles
Clouds Scattered Clouds 2500 ft
Heat Index 106 °F
Dew Point 77 °F
Humidity 62%
Rainfall 0.00 in
Snow Depth Not available.
UV 4 out of 12
Pollen Not available.
Air Quality Not available.
Flu Activity Not available.
METAR MNCH 242000Z 14004KT 9999 SCT025TCU 31/24 Q1009 TCU/N/NE

More Conditions Fewer Conditions

10-Day Weather Forecast

Almanac

Astronomy

Nov. 24, 2014 Rise Set
Actual Time
Civil Twilight
Nautical Twilight
Astronomical Twilight
Moon
Length of Visible Light
Length of Day
Tomorrow will be .
, % of the Moon is Illuminated

Today's Extremes

Country Highs Country Lows

Community

WunderPhotos

Upload Photos

1,773,403 photos uploaded!

WunderBlogs® & News

Nearby

Air Quality

  Air Quality AQ Index Pollutant
Not available.

Snow Depth

Station Depth Elevation

Earthquake Activity

City Distance Mag. Time & Date
Minimum magnitude displayed is 2.5.

Coastal Water Temperatures

Place Temperature

Nearby Weather Stations